Time;durP1;ratioP1;P1;durP2;ratioP2;P2;SDS_P1;SDS_P2;PMS_P1;PMS_P2;Temp;Humidity;BMP_temperature;BMP_pressure;BME280_temperature;BME280_humidity;BME280_pressure;Samples;Min_cycle;Max_cycle;Signal;HPM_P1;HPM_P2
2022/07/24 00:00:48;;;;;;;4.93;3.35;;;16.90;99.90;;;;;;3056602;19;20014;-67
2022/07/24 00:01:52;;;;;;;4.80;3.10;;;16.90;99.90;;;;;;3055986;19;20014;-68
2022/07/24 00:02:54;;;;;;;6.57;3.30;;;16.80;99.90;;;;;;3054971;19;20348;-67
2022/07/24 00:03:58;;;;;;;5.30;3.50;;;16.70;99.90;;;;;;3058225;19;20045;-67
2022/07/24 00:05:01;;;;;;;5.18;3.78;;;16.80;99.90;;;;;;3056199;19;20014;-67
2022/07/24 00:06:05;;;;;;;4.72;3.55;;;16.80;99.90;;;;;;3054823;19;22035;-67
2022/07/24 00:07:06;;;;;;;4.03;3.53;;;16.80;99.90;;;;;;3055619;19;20070;-67
2022/07/24 00:08:10;;;;;;;5.15;3.70;;;16.80;99.90;;;;;;3053427;19;20067;-67
2022/07/24 00:09:12;;;;;;;4.72;3.40;;;16.70;99.90;;;;;;3054735;19;20014;-67
2022/07/24 00:10:18;;;;;;;6.95;3.55;;;16.70;99.90;;;;;;3057195;19;20031;-67
2022/07/24 00:11:20;;;;;;;6.47;3.85;;;16.90;99.90;;;;;;3056997;19;20015;-67
2022/07/24 00:12:24;;;;;;;4.90;3.47;;;16.60;99.90;;;;;;3055347;19;20014;-67
2022/07/24 00:13:25;;;;;;;4.22;3.38;;;16.80;99.90;;;;;;3058774;19;20015;-67
2022/07/24 00:14:29;;;;;;;5.63;3.70;;;16.70;99.90;;;;;;3056352;19;20018;-67
2022/07/24 00:15:30;;;;;;;4.13;3.55;;;16.80;99.90;;;;;;3058024;19;20022;-69
2022/07/24 00:16:34;;;;;;;4.88;3.63;;;16.50;99.90;;;;;;3058840;19;20014;-67
2022/07/24 00:17:36;;;;;;;5.57;3.90;;;16.70;99.90;;;;;;3058387;19;20023;-69
2022/07/24 00:18:40;;;;;;;4.45;3.67;;;16.90;99.90;;;;;;3058752;19;20014;-67
2022/07/24 00:19:41;;;;;;;6.68;3.95;;;16.80;99.90;;;;;;3057656;19;20018;-67
2022/07/24 00:20:45;;;;;;;5.78;4.13;;;16.50;99.90;;;;;;3058511;19;20483;-67
2022/07/24 00:21:47;;;;;;;6.40;3.97;;;16.50;99.90;;;;;;3059094;19;20025;-67
2022/07/24 00:22:51;;;;;;;5.60;4.07;;;16.60;99.90;;;;;;3057746;19;20018;-67
2022/07/24 00:23:52;;;;;;;4.82;3.92;;;16.30;99.90;;;;;;3060021;19;20014;-68
2022/07/24 00:24:56;;;;;;;5.72;3.97;;;16.70;99.90;;;;;;3061074;19;20018;-68
2022/07/24 00:26:00;;;;;;;4.45;3.72;;;16.50;99.90;;;;;;3059603;19;20022;-67
2022/07/24 00:27:04;;;;;;;6.55;4.10;;;16.60;99.90;;;;;;3061182;19;20353;-67
2022/07/24 00:28:06;;;;;;;4.65;3.80;;;16.50;99.90;;;;;;3059899;19;20017;-69
2022/07/24 00:29:10;;;;;;;4.95;3.97;;;16.40;99.90;;;;;;3060190;19;20043;-67
2022/07/24 00:30:12;;;;;;;5.53;3.78;;;16.40;99.90;;;;;;3059857;19;20029;-67
2022/07/24 00:31:16;;;;;;;6.25;3.75;;;16.50;99.90;;;;;;3061325;19;20349;-67
2022/07/24 00:32:17;;;;;;;4.82;3.70;;;16.60;99.90;;;;;;3060123;19;20014;-67
2022/07/24 00:33:21;;;;;;;4.75;4.00;;;16.60;99.90;;;;;;3062058;19;20019;-68
2022/07/24 00:34:25;;;;;;;5.40;3.75;;;16.30;99.90;;;;;;3060340;19;20050;-67
2022/07/24 00:35:26;;;;;;;6.20;4.32;;;16.60;99.90;;;;;;3060273;19;20015;-67
2022/07/24 00:36:30;;;;;;;5.68;3.92;;;16.60;99.90;;;;;;3060558;19;20028;-67
2022/07/24 00:37:32;;;;;;;5.97;4.25;;;16.30;99.90;;;;;;3059134;19;20049;-67
2022/07/24 00:38:36;;;;;;;6.32;4.25;;;16.50;99.90;;;;;;3058682;19;20035;-67
2022/07/24 00:39:37;;;;;;;5.80;3.97;;;16.40;99.90;;;;;;3059864;19;20047;-67
2022/07/24 00:40:41;;;;;;;5.60;4.53;;;16.50;99.90;;;;;;3060759;19;20021;-67
2022/07/24 00:41:48;;;;;;;6.75;4.32;;;16.30;99.90;;;;;;3057849;19;20560;-67
2022/07/24 00:42:49;;;;;;;5.97;4.20;;;16.40;99.90;;;;;;3057525;19;20018;-67
2022/07/24 00:44:08;;;;;;;7.07;4.75;;;16.20;99.90;;;;;;3055701;19;20051;-68
2022/07/24 00:45:10;;;;;;;6.50;4.05;;;16.40;99.90;;;;;;3060196;19;20014;-67
2022/07/24 00:46:14;;;;;;;6.80;4.63;;;16.80;99.90;;;;;;3054601;19;20023;-68
2022/07/24 00:47:16;;;;;;;5.20;4.10;;;16.40;99.90;;;;;;3059756;19;20025;-67
2022/07/24 00:48:21;;;;;;;6.82;4.88;;;16.20;99.90;;;;;;3060571;19;20006;-67
2022/07/24 00:49:23;;;;;;;5.78;4.78;;;16.40;99.90;;;;;;3059683;19;20018;-67
2022/07/24 00:50:27;;;;;;;7.00;4.65;;;16.40;99.90;;;;;;3060179;19;20015;-68
2022/07/24 00:51:28;;;;;;;7.75;4.57;;;16.20;99.90;;;;;;3058475;19;20021;-67
2022/07/24 00:52:32;;;;;;;5.22;4.70;;;16.40;99.90;;;;;;3057323;19;20017;-67
2022/07/24 00:53:34;;;;;;;5.43;4.40;;;16.40;99.90;;;;;;3060863;19;20014;-67
2022/07/24 00:54:38;;;;;;;9.10;5.15;;;16.10;99.90;;;;;;3058178;19;20031;-68
2022/07/24 00:55:42;;;;;;;5.53;4.32;;;16.40;99.90;;;;;;3059112;19;20074;-67
2022/07/24 00:56:48;;;;;;;6.07;4.63;;;16.30;99.90;;;;;;3060230;19;20472;-69
2022/07/24 00:57:52;;;;;;;5.57;4.40;;;16.40;99.90;;;;;;3057964;19;20491;-67
2022/07/24 00:58:53;;;;;;;7.82;5.00;;;16.30;99.90;;;;;;3059872;19;20007;-68
2022/07/24 00:59:57;;;;;;;6.90;5.13;;;16.20;99.90;;;;;;3057333;19;20010;-67
2022/07/24 01:00:59;;;;;;;7.60;4.63;;;16.20;99.90;;;;;;3057010;19;20014;-67
2022/07/24 01:02:03;;;;;;;6.15;5.10;;;16.10;99.90;;;;;;3059841;19;20010;-67
2022/07/24 01:03:04;;;;;;;6.63;4.57;;;16.20;99.90;;;;;;3055120;19;20018;-67
2022/07/24 01:04:10;;;;;;;7.03;5.28;;;16.10;99.90;;;;;;3053725;19;20023;-67
2022/07/24 01:05:12;;;;;;;6.03;4.95;;;16.00;99.90;;;;;;3056202;19;20077;-67
2022/07/24 01:06:16;;;;;;;8.85;5.32;;;16.10;99.90;;;;;;3060387;19;20010;-67
2022/07/24 01:07:18;;;;;;;6.03;4.80;;;16.10;99.90;;;;;;3059726;19;20108;-67
2022/07/24 01:08:22;;;;;;;7.43;4.68;;;16.40;99.90;;;;;;3059319;19;20341;-67
2022/07/24 01:09:23;;;;;;;6.30;5.03;;;16.10;99.90;;;;;;3057866;19;20018;-67
2022/07/24 01:10:27;;;;;;;7.35;4.88;;;16.10;99.90;;;;;;3060130;19;20086;-67
2022/07/24 01:11:29;;;;;;;8.13;5.13;;;16.10;99.90;;;;;;3056757;19;20595;-67
2022/07/24 01:12:37;;;;;;;6.40;4.78;;;16.20;99.90;;;;;;3059980;19;20049;-67
2022/07/24 01:13:39;;;;;;;5.88;4.60;;;16.00;99.90;;;;;;3058916;19;20111;-67
2022/07/24 01:14:44;;;;;;;8.93;5.15;;;15.90;99.90;;;;;;3059649;19;20048;-67
2022/07/24 01:15:47;;;;;;;7.03;5.40;;;15.90;99.90;;;;;;3058195;19;20019;-67
2022/07/24 01:16:50;;;;;;;7.47;4.90;;;16.00;99.90;;;;;;3057713;19;20025;-67
2022/07/24 01:17:52;;;;;;;6.53;4.88;;;15.90;99.90;;;;;;3059815;19;20017;-67
2022/07/24 01:18:56;;;;;;;7.55;5.05;;;15.90;99.90;;;;;;3056832;19;20039;-67
2022/07/24 01:19:57;;;;;;;6.68;4.72;;;16.10;99.90;;;;;;3058992;19;20021;-68
2022/07/24 01:21:04;;;;;;;6.78;5.20;;;16.00;99.90;;;;;;3059011;19;20031;-67
2022/07/24 01:22:05;;;;;;;6.75;5.03;;;15.90;99.90;;;;;;3057176;19;20019;-67
2022/07/24 01:23:09;;;;;;;6.68;5.28;;;15.80;99.90;;;;;;3060214;19;20006;-68
2022/07/24 01:24:10;;;;;;;9.85;5.32;;;16.20;99.90;;;;;;3058470;19;20015;-67
2022/07/24 01:25:14;;;;;;;7.60;5.10;;;16.00;99.90;;;;;;3060381;19;20019;-67
2022/07/24 01:26:15;;;;;;;8.07;5.07;;;15.90;99.90;;;;;;3056350;19;20030;-67
2022/07/24 01:27:20;;;;;;;8.45;5.38;;;16.00;99.90;;;;;;3059489;19;20022;-68
2022/07/24 01:28:21;;;;;;;6.68;5.03;;;16.00;99.90;;;;;;3059819;19;20019;-68
2022/07/24 01:29:25;;;;;;;6.65;5.03;;;16.10;99.90;;;;;;3057580;19;20420;-67
2022/07/24 01:30:26;;;;;;;7.93;5.47;;;15.90;99.90;;;;;;3060387;19;20022;-67
2022/07/24 01:31:30;;;;;;;5.38;4.82;;;15.80;99.90;;;;;;3060018;19;20055;-67
2022/07/24 01:32:32;;;;;;;6.30;4.78;;;15.90;99.90;;;;;;3056390;19;20015;-67
2022/07/24 01:33:36;;;;;;;7.10;5.35;;;15.90;99.90;;;;;;3059236;19;20010;-67
2022/07/24 01:34:37;;;;;;;6.75;5.07;;;15.70;99.90;;;;;;3059261;19;20019;-67
2022/07/24 01:35:41;;;;;;;7.18;4.97;;;15.80;99.90;;;;;;3061682;19;20014;-67
2022/07/24 01:36:45;;;;;;;5.88;4.80;;;15.70;99.90;;;;;;3059837;19;20018;-67
2022/07/24 01:37:49;;;;;;;6.72;4.78;;;16.10;99.90;;;;;;3056287;19;20475;-67
2022/07/24 01:38:50;;;;;;;6.15;5.18;;;15.80;99.90;;;;;;3057777;19;20035;-67
2022/07/24 01:39:54;;;;;;;7.78;5.10;;;15.90;99.90;;;;;;3059024;19;20023;-67
2022/07/24 01:40:55;;;;;;;6.60;5.40;;;15.70;99.90;;;;;;3059782;19;20018;-67
2022/07/24 01:41:59;;;;;;;6.25;5.28;;;16.00;99.90;;;;;;3054337;19;20022;-67
2022/07/24 01:43:01;;;;;;;7.70;5.20;;;15.90;99.90;;;;;;3058325;19;20018;-67
2022/07/24 01:44:05;;;;;;;7.20;5.10;;;15.80;99.90;;;;;;3060190;19;20018;-67
2022/07/24 01:45:07;;;;;;;6.53;4.80;;;16.00;99.90;;;;;;3057327;19;20010;-67
2022/07/24 01:46:12;;;;;;;7.53;5.22;;;15.80;99.90;;;;;;3055772;19;20022;-67
2022/07/24 01:47:14;;;;;;;7.82;5.30;;;15.80;99.90;;;;;;3059339;19;20014;-67
2022/07/24 01:48:18;;;;;;;6.53;4.90;;;15.90;99.90;;;;;;3060336;19;20026;-67
2022/07/24 01:49:19;;;;;;;5.97;5.20;;;15.80;99.90;;;;;;3057495;19;20031;-67
2022/07/24 01:50:23;;;;;;;8.45;5.35;;;15.80;99.90;;;;;;3060260;19;20056;-67
2022/07/24 01:51:24;;;;;;;6.95;4.93;;;15.70;99.90;;;;;;3059479;19;20029;-68
2022/07/24 01:52:31;;;;;;;7.57;5.40;;;15.80;99.90;;;;;;3058170;19;20087;-67
2022/07/24 01:53:32;;;;;;;7.60;5.70;;;15.60;99.90;;;;;;3059256;19;20042;-67
2022/07/24 01:54:36;;;;;;;5.90;5.05;;;15.80;99.90;;;;;;3055194;19;20009;-67
2022/07/24 01:55:37;;;;;;;7.65;5.15;;;15.60;99.90;;;;;;3059411;19;20472;-67
2022/07/24 01:56:41;;;;;;;7.22;5.28;;;15.60;99.90;;;;;;3058761;19;20021;-67
2022/07/24 01:57:42;;;;;;;8.77;5.28;;;15.60;99.90;;;;;;3058420;19;20038;-67
2022/07/24 01:58:47;;;;;;;6.80;4.90;;;15.70;99.90;;;;;;3060251;19;20358;-68
2022/07/24 01:59:48;;;;;;;8.00;5.28;;;15.60;99.90;;;;;;3056384;19;20017;-67
2022/07/24 02:00:52;;;;;;;7.07;5.32;;;15.70;99.90;;;;;;3060100;19;20010;-68
2022/07/24 02:01:54;;;;;;;6.68;5.38;;;15.80;99.90;;;;;;3057380;19;20011;-67
2022/07/24 02:02:58;;;;;;;6.45;5.15;;;15.60;99.90;;;;;;3056246;19;20508;-67
2022/07/24 02:03:59;;;;;;;7.25;5.30;;;15.60;99.90;;;;;;3057932;19;20028;-67
2022/07/24 02:05:03;;;;;;;7.03;5.10;;;15.60;99.90;;;;;;3059010;19;20089;-67
2022/07/24 02:06:04;;;;;;;8.95;4.95;;;15.50;99.90;;;;;;3058177;19;20007;-67
2022/07/24 02:07:08;;;;;;;5.72;5.10;;;15.60;99.90;;;;;;3056199;19;20014;-67
2022/07/24 02:08:12;;;;;;;6.20;5.00;;;15.80;99.90;;;;;;3056364;19;20388;-67
2022/07/24 02:09:16;;;;;;;7.15;5.22;;;15.70;99.90;;;;;;3059577;19;20488;-67
2022/07/24 02:10:17;;;;;;;7.20;5.00;;;15.60;99.90;;;;;;3055414;19;20011;-66
2022/07/24 02:11:21;;;;;;;9.93;5.90;;;15.50;99.90;;;;;;3060338;19;20010;-68
2022/07/24 02:12:22;;;;;;;7.63;5.45;;;15.50;99.90;;;;;;3055419;19;20014;-67
2022/07/24 02:13:27;;;;;;;7.60;5.35;;;15.90;99.90;;;;;;3060095;19;20031;-67
2022/07/24 02:14:29;;;;;;;8.00;4.80;;;15.60;99.90;;;;;;3057192;19;20019;-68
2022/07/24 02:15:33;;;;;;;6.18;5.13;;;15.50;99.90;;;;;;3060867;19;20015;-67
2022/07/24 02:16:34;;;;;;;9.05;4.97;;;16.00;99.90;;;;;;3059364;19;20434;-68
2022/07/24 02:17:38;;;;;;;6.65;5.05;;;15.60;99.90;;;;;;3059413;19;20003;-68
2022/07/24 02:18:39;;;;;;;9.55;5.47;;;15.50;99.90;;;;;;3058521;19;20356;-67
2022/07/24 02:19:43;;;;;;;11.30;5.35;;;15.50;99.90;;;;;;3059984;19;20006;-67
2022/07/24 02:20:44;;;;;;;7.93;4.95;;;15.60;99.90;;;;;;3057600;19;20018;-67
2022/07/24 02:21:48;;;;;;;11.23;5.22;;;15.50;99.90;;;;;;3058860;19;20027;-67
2022/07/24 02:22:51;;;;;;;6.57;5.38;;;15.50;99.90;;;;;;3056578;19;20010;-67
2022/07/24 02:23:57;;;;;;;6.80;4.82;;;15.50;99.90;;;;;;3056741;19;20025;-67
2022/07/24 02:24:58;;;;;;;8.50;5.40;;;16.80;99.90;;;;;;3057893;19;20104;-67
2022/07/24 02:26:02;;;;;;;9.57;5.13;;;15.40;99.90;;;;;;3058399;19;20371;-67
2022/07/24 02:27:03;;;;;;;9.05;5.40;;;15.40;99.90;;;;;;3053635;19;20673;-67
2022/07/24 02:28:07;;;;;;;9.18;5.20;;;15.40;99.90;;;;;;3050125;19;20045;-67
2022/07/24 02:29:09;;;;;;;7.68;5.22;;;15.40;99.90;;;;;;3048658;19;20061;-69
2022/07/24 02:30:17;;;;;;;9.75;5.47;;;15.50;99.90;;;;;;3059619;19;20504;-67
2022/07/24 02:31:18;;;;;;;8.52;4.60;;;15.50;99.90;;;;;;3059258;19;20360;-67
2022/07/24 02:32:24;;;;;;;6.82;5.18;;;15.60;99.90;;;;;;3060166;19;20074;-68
2022/07/24 02:33:25;;;;;;;9.90;5.43;;;15.40;99.90;;;;;;3059408;19;20118;-68
2022/07/24 02:34:29;;;;;;;7.88;5.90;;;15.40;99.90;;;;;;3056412;19;20043;-67
2022/07/24 02:35:31;;;;;;;8.13;5.07;;;15.40;99.90;;;;;;3055465;19;20015;-68
2022/07/24 02:36:34;;;;;;;8.15;5.35;;;15.30;99.90;;;;;;3059274;19;20010;-68
2022/07/24 02:37:37;;;;;;;8.60;5.57;;;15.40;99.90;;;;;;3058196;19;20015;-68
2022/07/24 02:38:41;;;;;;;6.97;5.32;;;15.40;99.90;;;;;;3061139;19;20041;-67
2022/07/24 02:39:45;;;;;;;8.27;5.63;;;15.40;99.90;;;;;;3059020;19;20475;-67
2022/07/24 02:40:48;;;;;;;9.65;5.30;;;15.40;99.90;;;;;;3058171;19;20007;-67
2022/07/24 02:41:50;;;;;;;6.80;5.03;;;15.40;99.90;;;;;;3056533;19;20376;-68
2022/07/24 02:42:54;;;;;;;8.27;5.40;;;15.30;99.90;;;;;;3057017;19;20067;-67
2022/07/24 02:43:55;;;;;;;7.80;5.00;;;15.30;99.90;;;;;;3057963;19;20441;-68
2022/07/24 02:44:59;;;;;;;8.88;5.70;;;15.30;99.90;;;;;;3057400;19;20026;-68
2022/07/24 02:46:00;;;;;;;6.07;5.15;;;15.30;99.90;;;;;;3058757;19;20099;-68
2022/07/24 02:47:04;;;;;;;8.02;5.22;;;15.30;99.90;;;;;;3055927;19;20026;-67
2022/07/24 02:48:06;;;;;;;7.68;5.10;;;15.50;99.90;;;;;;3058644;19;20017;-68
2022/07/24 02:49:10;;;;;;;6.88;5.55;;;15.30;99.90;;;;;;3058392;19;20498;-69
2022/07/24 02:50:12;;;;;;;7.25;5.28;;;15.40;99.90;;;;;;3059318;19;20027;-68
2022/07/24 02:51:19;;;;;;;7.93;5.25;;;15.40;99.90;;;;;;3058388;19;20009;-67
2022/07/24 02:52:20;;;;;;;8.80;5.60;;;15.50;99.90;;;;;;3057175;19;20018;-68
2022/07/24 02:53:24;;;;;;;7.20;5.57;;;15.20;99.90;;;;;;3058799;19;20015;-68
2022/07/24 02:54:25;;;;;;;6.22;5.15;;;15.30;99.90;;;;;;3056878;19;20006;-68
2022/07/24 02:55:32;;;;;;;8.68;5.82;;;15.40;99.90;;;;;;3057423;19;20051;-67
2022/07/24 02:56:33;;;;;;;6.88;5.20;;;15.40;99.90;;;;;;3058554;19;20038;-67
2022/07/24 02:57:37;;;;;;;8.80;5.05;;;15.40;99.90;;;;;;3054702;19;20022;-68
2022/07/24 02:58:41;;;;;;;7.88;5.63;;;15.30;99.90;;;;;;3056153;19;20480;-68
2022/07/24 02:59:44;;;;;;;7.50;5.53;;;15.50;99.90;;;;;;3058294;19;20042;-68
2022/07/24 03:00:48;;;;;;;8.70;5.78;;;15.50;99.90;;;;;;3057505;19;20479;-68
2022/07/24 03:01:49;;;;;;;7.82;5.38;;;15.40;99.90;;;;;;3059915;19;20039;-68
2022/07/24 03:02:53;;;;;;;7.97;5.47;;;15.20;99.90;;;;;;3057704;19;20010;-68
2022/07/24 03:03:55;;;;;;;9.50;5.45;;;15.40;99.90;;;;;;3058575;19;20011;-68
2022/07/24 03:04:59;;;;;;;10.18;5.88;;;15.30;99.90;;;;;;3057971;19;20022;-68
2022/07/24 03:06:03;;;;;;;6.68;5.60;;;15.30;99.90;;;;;;3059629;19;20018;-68
2022/07/24 03:07:04;;;;;;;7.75;5.80;;;15.30;99.90;;;;;;3055236;19;20006;-67
2022/07/24 03:08:08;;;;;;;11.52;5.82;;;15.40;99.90;;;;;;3058206;19;20472;-68
2022/07/24 03:09:09;;;;;;;7.53;5.45;;;15.50;99.90;;;;;;3058143;19;20025;-67
2022/07/24 03:10:14;;;;;;;9.82;5.90;;;15.40;99.90;;;;;;3057426;19;20019;-68
2022/07/24 03:11:18;;;;;;;8.25;5.20;;;15.60;99.90;;;;;;3056328;19;20021;-68
2022/07/24 03:12:22;;;;;;;8.55;5.35;;;15.30;99.90;;;;;;3047112;19;20712;-68
2022/07/24 03:13:23;;;;;;;9.60;5.55;;;15.30;99.90;;;;;;3049608;19;20018;-68
2022/07/24 03:14:27;;;;;;;7.95;5.60;;;15.20;99.90;;;;;;3047938;19;20018;-68
2022/07/24 03:15:28;;;;;;;9.35;6.00;;;15.30;99.90;;;;;;3058343;19;20003;-68
2022/07/24 03:16:32;;;;;;;7.18;5.10;;;15.40;99.90;;;;;;3058922;19;20014;-68
2022/07/24 03:17:33;;;;;;;8.30;5.57;;;15.40;99.90;;;;;;3056618;19;20023;-68
2022/07/24 03:18:37;;;;;;;7.60;5.50;;;15.30;99.90;;;;;;3058744;19;20021;-68
2022/07/24 03:19:39;;;;;;;8.88;6.35;;;15.20;99.90;;;;;;3056984;19;20038;-68
2022/07/24 03:20:42;;;;;;;6.97;5.47;;;15.40;99.90;;;;;;3058091;19;20009;-68
2022/07/24 03:21:44;;;;;;;8.57;5.78;;;15.30;99.90;;;;;;3057619;19;20014;-68
2022/07/24 03:22:48;;;;;;;7.90;5.05;;;15.30;99.90;;;;;;3057564;19;20017;-68
2022/07/24 03:23:49;;;;;;;7.13;5.35;;;15.40;99.90;;;;;;3057156;19;20011;-68
2022/07/24 03:24:53;;;;;;;11.43;5.82;;;15.20;99.90;;;;;;3056532;19;20014;-68
2022/07/24 03:25:54;;;;;;;8.38;5.18;;;15.20;99.90;;;;;;3056882;19;20015;-68
2022/07/24 03:27:01;;;;;;;9.45;5.65;;;15.10;99.90;;;;;;3058675;19;20015;-68
2022/07/24 03:28:02;;;;;;;9.00;5.60;;;15.20;99.90;;;;;;3057964;19;20011;-67
2022/07/24 03:29:06;;;;;;;11.40;5.78;;;15.30;99.90;;;;;;3057406;19;20342;-67
2022/07/24 03:30:09;;;;;;;9.63;5.55;;;15.30;99.90;;;;;;3058145;19;20302;-67
2022/07/24 03:31:13;;;;;;;9.60;5.88;;;15.20;99.90;;;;;;3057285;19;19998;-67
2022/07/24 03:32:14;;;;;;;7.50;5.18;;;15.20;99.90;;;;;;3056192;19;20553;-67
2022/07/24 03:33:18;;;;;;;9.52;5.65;;;15.20;99.90;;;;;;3057058;19;20090;-68
2022/07/24 03:34:19;;;;;;;9.10;5.50;;;12.90;99.90;;;;;;3057973;19;20550;-68
2022/07/24 03:35:23;;;;;;;9.35;5.88;;;15.20;99.90;;;;;;3057288;19;20011;-67
2022/07/24 03:36:27;;;;;;;8.27;5.60;;;15.20;99.90;;;;;;3058887;19;20027;-68
2022/07/24 03:37:29;;;;;;;8.75;5.75;;;15.40;99.90;;;;;;3055941;19;20019;-68
2022/07/24 03:38:33;;;;;;;8.73;5.72;;;15.20;99.90;;;;;;3059745;19;20361;-68
2022/07/24 03:39:34;;;;;;;9.25;5.80;;;15.30;99.90;;;;;;3057177;19;20366;-68
2022/07/24 03:40:38;;;;;;;7.15;5.30;;;15.10;99.90;;;;;;3059618;19;20023;-67
2022/07/24 03:41:40;;;;;;;8.38;5.78;;;15.20;99.90;;;;;;3057353;19;20007;-68
2022/07/24 03:42:46;;;;;;;8.13;5.18;;;15.10;99.90;;;;;;3057411;19;20018;-68
2022/07/24 03:43:47;;;;;;;8.93;5.90;;;15.10;99.90;;;;;;3058896;19;20038;-68
2022/07/24 03:44:51;;;;;;;9.63;5.68;;;15.10;99.90;;;;;;3056468;19;20039;-67
2022/07/24 03:45:55;;;;;;;8.88;5.90;;;15.30;99.90;;;;;;3058986;19;20011;-68
2022/07/24 03:46:56;;;;;;;9.90;5.32;;;15.30;99.90;;;;;;3057656;19;20084;-65
2022/07/24 03:48:00;;;;;;;7.88;5.53;;;15.20;99.90;;;;;;3057250;19;20030;-67
2022/07/24 03:49:05;;;;;;;7.18;5.25;;;15.30;99.90;;;;;;3057935;19;20022;-68
2022/07/24 03:50:07;;;;;;;12.18;6.03;;;15.20;99.90;;;;;;3058680;19;20019;-68
2022/07/24 03:51:11;;;;;;;7.47;5.30;;;15.20;99.90;;;;;;3058333;19;20015;-67
2022/07/24 03:52:12;;;;;;;8.18;6.03;;;15.20;99.90;;;;;;3057799;19;20428;-68
2022/07/24 03:53:16;;;;;;;8.15;5.57;;;16.00;99.90;;;;;;3058217;19;20039;-67
2022/07/24 03:54:18;;;;;;;10.43;6.07;;;15.20;99.90;;;;;;3054585;19;20029;-67
2022/07/24 03:55:22;;;;;;;8.65;5.50;;;16.00;99.90;;;;;;3058386;19;20014;-67
2022/07/24 03:56:23;;;;;;;11.55;5.70;;;15.20;99.90;;;;;;3058539;19;20014;-67
2022/07/24 03:57:27;;;;;;;9.45;5.60;;;15.20;99.90;;;;;;3061146;19;20018;-67
2022/07/24 03:58:31;;;;;;;8.65;5.75;;;15.20;99.90;;;;;;3057655;19;20022;-67
2022/07/24 03:59:35;;;;;;;8.55;5.38;;;15.20;99.90;;;;;;3059471;19;20074;-67
2022/07/24 04:00:36;;;;;;;9.40;5.65;;;15.10;99.90;;;;;;3059972;19;20484;-67
2022/07/24 04:01:40;;;;;;;11.07;5.60;;;15.10;99.90;;;;;;3061335;19;20484;-67
2022/07/24 04:02:42;;;;;;;9.63;5.55;;;15.20;99.90;;;;;;3057521;19;20472;-67
2022/07/24 04:03:45;;;;;;;8.55;5.72;;;15.10;99.90;;;;;;3058558;19;20015;-68
2022/07/24 04:04:47;;;;;;;10.50;5.60;;;15.20;99.90;;;;;;3056294;19;20401;-68
2022/07/24 04:05:51;;;;;;;10.85;5.45;;;15.20;99.90;;;;;;3060358;19;20373;-67
2022/07/24 04:06:52;;;;;;;9.35;5.13;;;15.30;99.90;;;;;;3057867;19;20018;-67
2022/07/24 04:07:56;;;;;;;11.45;5.88;;;14.90;99.90;;;;;;3060312;19;20527;-68
2022/07/24 04:08:57;;;;;;;9.13;5.82;;;15.00;99.90;;;;;;3057107;19;20104;-68
2022/07/24 04:10:01;;;;;;;8.18;5.32;;;15.30;99.90;;;;;;3059864;19;20010;-67
2022/07/24 04:11:02;;;;;;;8.82;5.25;;;15.00;99.90;;;;;;3060057;19;20014;-67
2022/07/24 04:12:06;;;;;;;8.77;5.38;;;15.20;99.90;;;;;;3061326;19;20002;-67
2022/07/24 04:13:08;;;;;;;8.95;5.40;;;15.20;99.90;;;;;;3060881;19;20022;-67
2022/07/24 04:14:14;;;;;;;11.43;5.60;;;15.30;99.90;;;;;;3060932;19;20498;-68
2022/07/24 04:15:16;;;;;;;7.50;5.20;;;15.30;99.90;;;;;;3052796;19;20014;-67
2022/07/24 04:16:20;;;;;;;8.52;5.40;;;15.30;99.90;;;;;;3057690;19;20479;-67
2022/07/24 04:17:21;;;;;;;8.70;5.20;;;15.20;99.90;;;;;;3059905;19;20019;-68
2022/07/24 04:18:26;;;;;;;10.85;5.15;;;15.70;99.90;;;;;;3061239;19;20043;-68
2022/07/24 04:19:27;;;;;;;9.63;5.50;;;15.20;99.90;;;;;;3059953;19;20042;-68
2022/07/24 04:20:31;;;;;;;9.32;5.65;;;15.30;99.90;;;;;;3058879;19;20090;-68
2022/07/24 04:21:32;;;;;;;6.93;5.25;;;15.20;99.90;;;;;;3061174;19;20511;-68
2022/07/24 04:22:36;;;;;;;10.32;5.40;;;15.30;99.90;;;;;;3058434;19;20026;-68
2022/07/24 04:23:40;;;;;;;8.30;4.95;;;15.30;99.90;;;;;;3060471;19;20014;-67
2022/07/24 04:24:44;;;;;;;7.45;5.72;;;15.40;99.90;;;;;;3058609;19;20005;-67
2022/07/24 04:25:47;;;;;;;9.82;5.70;;;15.20;99.90;;;;;;3057902;19;20026;-68
2022/07/24 04:26:51;;;;;;;10.50;5.40;;;15.20;99.90;;;;;;3062234;19;20018;-68
2022/07/24 04:27:52;;;;;;;7.80;5.30;;;15.30;99.90;;;;;;3061553;19;20519;-67
2022/07/24 04:28:56;;;;;;;9.13;5.13;;;15.50;99.90;;;;;;3059055;19;20064;-70
2022/07/24 04:30:00;;;;;;;7.50;4.95;;;15.30;99.90;;;;;;3060824;19;20034;-68
2022/07/24 04:31:05;;;;;;;6.95;5.20;;;15.30;99.90;;;;;;3061045;19;20019;-68
2022/07/24 04:32:06;;;;;;;6.85;5.30;;;15.30;99.90;;;;;;3060664;19;20014;-68
2022/07/24 04:33:10;;;;;;;6.57;5.65;;;15.20;99.90;;;;;;3061044;19;20022;-67
2022/07/24 04:34:11;;;;;;;9.90;5.47;;;15.20;99.90;;;;;;3059541;19;20104;-68
2022/07/24 04:35:15;;;;;;;10.95;6.25;;;15.30;99.90;;;;;;3061041;19;20011;-68
2022/07/24 04:36:17;;;;;;;10.45;5.43;;;15.30;99.90;;;;;;3057025;19;20014;-68
2022/07/24 04:37:21;;;;;;;7.72;5.75;;;15.20;99.90;;;;;;3060912;19;20046;-68
2022/07/24 04:38:22;;;;;;;8.85;5.30;;;15.20;99.90;;;;;;3059018;19;20018;-67
2022/07/24 04:39:26;;;;;;;9.82;5.55;;;15.20;99.90;;;;;;3058167;19;20443;-68
2022/07/24 04:40:27;;;;;;;6.82;5.22;;;15.20;99.90;;;;;;3057031;19;20026;-67
2022/07/24 04:41:31;;;;;;;8.73;5.38;;;15.20;99.90;;;;;;3060796;19;20410;-68
2022/07/24 04:42:32;;;;;;;7.30;5.40;;;15.40;99.90;;;;;;3058421;19;20503;-68
2022/07/24 04:43:36;;;;;;;9.27;5.57;;;15.30;99.90;;;;;;3061283;19;20053;-68
2022/07/24 04:44:37;;;;;;;9.13;5.55;;;15.20;99.90;;;;;;3058973;19;20424;-67
2022/07/24 04:45:44;;;;;;;9.93;5.60;;;15.20;99.90;;;;;;3061123;19;20010;-68
2022/07/24 04:46:45;;;;;;;9.70;5.65;;;15.50;99.90;;;;;;3059092;19;20027;-67
2022/07/24 04:47:49;;;;;;;10.40;6.10;;;15.30;99.90;;;;;;3059239;19;20019;-67
2022/07/24 04:48:50;;;;;;;7.18;5.78;;;15.30;99.90;;;;;;3062086;19;20018;-68
2022/07/24 04:49:55;;;;;;;12.50;5.93;;;15.30;99.90;;;;;;3061339;19;20033;-67
2022/07/24 04:50:57;;;;;;;10.43;5.63;;;15.30;99.90;;;;;;3060646;19;20022;-67
2022/07/24 04:52:00;;;;;;;9.48;5.28;;;15.30;99.90;;;;;;3060732;19;20381;-67
2022/07/24 04:53:02;;;;;;;6.53;5.60;;;15.30;99.90;;;;;;3061294;19;20014;-67
2022/07/24 04:54:06;;;;;;;8.50;5.95;;;15.40;99.90;;;;;;3059244;19;20031;-67
2022/07/24 04:55:09;;;;;;;7.68;5.38;;;15.30;99.90;;;;;;3058646;19;20014;-68
2022/07/24 04:56:13;;;;;;;10.68;6.05;;;15.30;99.90;;;;;;3059327;19;20015;-67
2022/07/24 04:57:14;;;;;;;7.95;5.65;;;15.50;99.90;;;;;;3060074;19;20108;-67
2022/07/24 04:58:18;;;;;;;7.43;5.45;;;15.40;99.90;;;;;;3059300;19;20014;-67
2022/07/24 04:59:19;;;;;;;11.82;5.25;;;15.40;99.90;;;;;;3058680;19;20022;-67
2022/07/24 05:00:23;;;;;;;7.38;5.35;;;15.20;99.90;;;;;;3054830;19;20028;-67
2022/07/24 05:01:28;;;;;;;7.00;5.95;;;15.30;99.90;;;;;;3060012;19;20011;-67
2022/07/24 05:02:31;;;;;;;7.18;5.80;;;15.00;99.90;;;;;;3059675;19;20006;-67
2022/07/24 05:03:33;;;;;;;7.88;5.60;;;15.60;99.90;;;;;;3059117;19;20018;-67
2022/07/24 05:04:37;;;;;;;8.73;5.88;;;15.40;99.90;;;;;;3060144;19;20051;-68
2022/07/24 05:05:38;;;;;;;8.65;5.70;;;15.40;99.90;;;;;;3056222;19;20025;-68
2022/07/24 05:06:42;;;;;;;8.95;5.72;;;15.60;99.90;;;;;;3059672;19;20014;-67
2022/07/24 05:07:43;;;;;;;9.90;5.80;;;15.60;99.90;;;;;;3058170;19;20495;-69
2022/07/24 05:08:47;;;;;;;7.72;5.70;;;15.70;99.90;;;;;;3057899;19;20729;-67
2022/07/24 05:09:49;;;;;;;7.65;6.18;;;15.70;99.90;;;;;;3058927;19;20025;-67
2022/07/24 05:10:53;;;;;;;9.93;5.90;;;15.80;99.90;;;;;;3059841;19;20022;-67
2022/07/24 05:11:54;;;;;;;9.43;6.25;;;15.80;99.90;;;;;;3056288;19;20019;-68
2022/07/24 05:12:58;;;;;;;7.32;5.78;;;15.60;99.90;;;;;;3057792;19;20496;-68
2022/07/24 05:13:59;;;;;;;6.68;5.32;;;15.70;99.90;;;;;;3060099;19;20010;-68
2022/07/24 05:15:03;;;;;;;8.38;6.05;;;15.90;99.90;;;;;;3058714;19;20066;-67
2022/07/24 05:16:05;;;;;;;7.65;5.82;;;16.00;99.90;;;;;;3057808;19;20025;-68
2022/07/24 05:17:11;;;;;;;9.57;6.15;;;15.90;99.90;;;;;;3057280;19;20029;-68
2022/07/24 05:18:15;;;;;;;7.22;5.90;;;16.00;99.90;;;;;;3060836;19;20102;-68
2022/07/24 05:19:17;;;;;;;7.18;5.70;;;16.10;99.90;;;;;;3057678;19;20083;-68
2022/07/24 05:20:21;;;;;;;7.68;5.70;;;18.10;99.90;;;;;;3060078;19;20002;-67
2022/07/24 05:21:22;;;;;;;13.05;6.40;;;16.40;99.90;;;;;;3060109;19;20022;-68
2022/07/24 05:22:26;;;;;;;8.00;5.85;;;16.00;99.90;;;;;;3059968;19;19999;-68
2022/07/24 05:23:30;;;;;;;7.50;5.90;;;16.10;99.90;;;;;;3058020;19;20015;-68
2022/07/24 05:24:31;;;;;;;8.90;6.22;;;15.90;99.90;;;;;;3059523;19;20014;-68
2022/07/24 05:25:35;;;;;;;8.10;5.60;;;16.10;99.90;;;;;;3055985;19;20015;-68
2022/07/24 05:26:39;;;;;;;9.75;6.28;;;16.00;99.90;;;;;;3059931;19;20096;-68
2022/07/24 05:27:40;;;;;;;9.30;5.80;;;15.90;99.90;;;;;;3059873;19;20038;-68